createdAt,value
2018-06-24T00:01:47.286Z,12.97
2018-06-24T00:04:16.549Z,12.97
2018-06-24T00:06:45.847Z,12.97
2018-06-24T00:09:15.025Z,12.98
2018-06-24T00:11:44.205Z,12.99
2018-06-24T00:14:13.455Z,12.98
2018-06-24T00:16:42.543Z,12.97
2018-06-24T00:19:11.769Z,12.97
2018-06-24T00:21:40.927Z,12.97
2018-06-24T00:24:10.353Z,12.97
2018-06-24T00:26:39.561Z,12.97
2018-06-24T00:29:08.788Z,12.96
2018-06-24T00:31:38.085Z,12.93
2018-06-24T00:34:07.278Z,12.90
2018-06-24T00:36:37.487Z,12.87
2018-06-24T00:39:09.015Z,12.84
2018-06-24T00:41:38.549Z,12.79
2018-06-24T00:44:07.749Z,12.76
2018-06-24T00:46:37.764Z,12.73
2018-06-24T00:49:06.952Z,12.71
2018-06-24T00:51:36.163Z,12.69
2018-06-24T00:54:05.311Z,12.68
2018-06-24T00:56:34.530Z,12.67
2018-06-24T00:59:03.723Z,12.65
2018-06-24T01:01:32.881Z,12.65
2018-06-24T01:04:02.613Z,12.66
2018-06-24T01:06:31.748Z,12.65
2018-06-24T01:09:00.892Z,12.68
2018-06-24T01:11:30.702Z,12.69
2018-06-24T01:13:59.873Z,12.69
2018-06-24T01:16:29.085Z,12.71
2018-06-24T01:18:58.273Z,12.70
2018-06-24T01:21:27.469Z,12.69
2018-06-24T01:23:56.617Z,12.69
2018-06-24T01:26:26.684Z,12.68
2018-06-24T01:28:55.852Z,12.67
2018-06-24T01:31:25.146Z,12.68
2018-06-24T01:33:54.303Z,12.67
2018-06-24T01:36:23.462Z,12.66
2018-06-24T01:38:52.591Z,12.65
2018-06-24T01:41:21.743Z,12.64
2018-06-24T01:43:50.969Z,12.64
2018-06-24T01:46:20.212Z,12.63
2018-06-24T01:48:49.390Z,12.61
2018-06-24T01:51:18.589Z,12.59
2018-06-24T01:53:47.846Z,12.59
2018-06-24T01:56:17.049Z,12.60
2018-06-24T01:58:46.282Z,12.61
2018-06-24T02:01:15.478Z,12.61
2018-06-24T02:03:44.840Z,12.60
2018-06-24T02:06:13.981Z,12.62
2018-06-24T02:08:43.108Z,12.63
2018-06-24T02:11:12.241Z,12.64
2018-06-24T02:13:41.341Z,12.64
2018-06-24T02:16:10.480Z,12.65
2018-06-24T02:18:39.707Z,12.64
2018-06-24T02:21:08.835Z,12.63
2018-06-24T02:23:37.996Z,12.64
2018-06-24T02:26:07.209Z,12.64
2018-06-24T02:28:36.538Z,12.65
2018-06-24T02:31:06.000Z,12.65
2018-06-24T02:33:35.132Z,12.66
2018-06-24T02:36:04.281Z,12.66
2018-06-24T02:38:33.413Z,12.66
2018-06-24T02:41:02.610Z,12.65
2018-06-24T02:43:31.706Z,12.64
2018-06-24T02:46:00.949Z,12.62
2018-06-24T02:48:30.076Z,12.63
2018-06-24T02:50:59.220Z,12.64
2018-06-24T02:53:28.380Z,12.62
2018-06-24T02:55:57.722Z,12.60
2018-06-24T02:58:26.887Z,12.59
2018-06-24T03:00:56.068Z,12.54
2018-06-24T03:03:25.169Z,12.53
2018-06-24T03:05:54.361Z,12.55
2018-06-24T03:08:23.488Z,12.54
2018-06-24T03:10:52.604Z,12.54
2018-06-24T03:13:21.877Z,12.52
2018-06-24T03:15:51.290Z,12.51
2018-06-24T03:18:21.061Z,12.48
2018-06-24T03:20:50.285Z,12.46
2018-06-24T03:23:19.585Z,12.45
2018-06-24T03:25:48.728Z,12.44
2018-06-24T03:28:17.903Z,12.42
2018-06-24T03:30:47.074Z,12.42
2018-06-24T03:33:16.195Z,12.45
2018-06-24T03:35:45.306Z,12.46
2018-06-24T03:38:14.530Z,12.46
2018-06-24T03:40:43.657Z,12.45
2018-06-24T03:43:12.861Z,12.45
2018-06-24T03:45:42.145Z,12.45
2018-06-24T03:48:11.328Z,12.46
2018-06-24T03:50:40.457Z,12.49
2018-06-24T03:53:09.654Z,12.49
2018-06-24T03:55:38.839Z,12.50
2018-06-24T03:58:08.027Z,12.52
2018-06-24T04:00:37.167Z,12.53
2018-06-24T04:03:06.337Z,12.56
2018-06-24T04:05:35.543Z,12.60
2018-06-24T04:08:04.711Z,12.62
2018-06-24T04:10:33.842Z,12.64
2018-06-24T04:13:03.309Z,12.67
2018-06-24T04:15:32.441Z,12.69
2018-06-24T04:18:01.680Z,12.72
2018-06-24T04:20:30.826Z,12.72
2018-06-24T04:22:59.926Z,12.70
2018-06-24T04:25:29.074Z,12.67
2018-06-24T04:27:58.194Z,12.64
2018-06-24T04:30:27.341Z,12.61
2018-06-24T04:32:56.574Z,12.59
2018-06-24T04:35:25.733Z,12.61
2018-06-24T04:37:54.937Z,12.62
2018-06-24T04:40:25.002Z,12.63
2018-06-24T04:42:54.188Z,12.63
2018-06-24T04:45:23.344Z,12.62
2018-06-24T04:47:52.543Z,12.63
2018-06-24T04:50:21.738Z,12.63
2018-06-24T04:52:50.881Z,12.63
2018-06-24T04:55:20.062Z,12.63
2018-06-24T04:57:49.243Z,12.64
2018-06-24T05:00:18.419Z,12.66
2018-06-24T05:02:47.584Z,12.66
2018-06-24T05:05:16.710Z,12.67
2018-06-24T05:07:45.827Z,12.66
2018-06-24T05:10:14.976Z,12.70
2018-06-24T05:12:44.155Z,12.73
2018-06-24T05:15:13.294Z,12.75
2018-06-24T05:17:42.451Z,12.77
2018-06-24T05:20:11.630Z,12.82
2018-06-24T05:22:41.836Z,12.86
2018-06-24T05:25:11.006Z,12.90
2018-06-24T05:27:40.168Z,12.94
2018-06-24T05:30:09.366Z,12.98
2018-06-24T05:32:38.491Z,13.01
2018-06-24T05:35:07.649Z,13.02
2018-06-24T05:37:36.790Z,13.03
2018-06-24T05:40:05.972Z,13.07
2018-06-24T05:42:35.154Z,13.09
2018-06-24T05:45:04.283Z,13.12
2018-06-24T05:47:33.403Z,13.14
2018-06-24T05:50:02.535Z,13.15
2018-06-24T05:52:31.657Z,13.14
2018-06-24T05:55:00.798Z,13.16
2018-06-24T05:57:29.977Z,13.20
2018-06-24T05:59:59.102Z,13.23
2018-06-24T06:02:28.462Z,13.27
2018-06-24T06:04:57.590Z,13.30
2018-06-24T06:07:26.782Z,13.35
2018-06-24T06:09:55.938Z,13.41
2018-06-24T06:12:25.089Z,13.47
2018-06-24T06:14:54.241Z,13.50
2018-06-24T06:17:23.382Z,13.51
2018-06-24T06:19:52.579Z,13.54
2018-06-24T06:22:21.838Z,13.57
2018-06-24T06:24:50.975Z,13.58
2018-06-24T06:27:20.123Z,13.57
2018-06-24T06:29:49.259Z,13.58
2018-06-24T06:32:18.388Z,13.63
2018-06-24T06:34:47.318Z,13.66
2018-06-24T06:37:16.425Z,13.71
2018-06-24T06:39:45.608Z,13.80
2018-06-24T06:42:14.798Z,13.85
2018-06-24T06:44:43.939Z,13.89
2018-06-24T06:47:13.416Z,14.00
2018-06-24T06:49:42.694Z,14.09
2018-06-24T06:52:11.855Z,14.16
2018-06-24T06:54:40.977Z,14.23
2018-06-24T06:57:10.548Z,14.24
2018-06-24T06:59:40.927Z,14.29
2018-06-24T07:02:10.369Z,14.38
2018-06-24T07:04:39.491Z,14.47
2018-06-24T07:07:08.726Z,14.57
2018-06-24T07:09:37.923Z,14.68
2018-06-24T07:12:07.237Z,14.67
2018-06-24T07:14:36.435Z,14.56
2018-06-24T07:17:05.883Z,14.42
2018-06-24T07:19:34.983Z,14.31
2018-06-24T07:22:04.157Z,14.24
2018-06-24T07:24:33.370Z,14.17
2018-06-24T07:27:02.613Z,14.14
2018-06-24T07:29:32.049Z,14.19
2018-06-24T07:32:00.925Z,14.24
2018-06-24T07:34:30.081Z,14.40
2018-06-24T07:36:59.218Z,14.67
2018-06-24T07:39:28.360Z,14.91
2018-06-24T07:41:57.447Z,14.97
2018-06-24T07:44:26.552Z,14.94
2018-06-24T07:46:55.783Z,14.76
2018-06-24T07:49:24.917Z,14.62
2018-06-24T07:51:54.110Z,14.54
2018-06-24T07:54:23.247Z,14.50
2018-06-24T07:56:52.377Z,14.48
2018-06-24T07:59:21.522Z,14.37
2018-06-24T08:01:50.727Z,14.33
2018-06-24T08:04:19.852Z,14.34
2018-06-24T08:06:49.273Z,14.37
2018-06-24T08:09:18.509Z,14.40
2018-06-24T08:11:47.706Z,14.38
2018-06-24T08:14:16.840Z,14.34
2018-06-24T08:16:45.967Z,14.32
2018-06-24T08:19:15.120Z,14.29
2018-06-24T08:21:44.277Z,14.23
2018-06-24T08:24:13.452Z,14.15
2018-06-24T08:26:43.285Z,14.11
2018-06-24T08:29:13.479Z,14.05
2018-06-24T08:31:42.644Z,13.99
2018-06-24T08:34:11.823Z,13.94
2018-06-24T08:36:40.964Z,13.94
2018-06-24T08:39:11.125Z,14.01
2018-06-24T08:41:40.323Z,14.08
2018-06-24T08:44:09.547Z,14.16
2018-06-24T08:46:38.949Z,14.29
2018-06-24T08:49:08.653Z,14.38
2018-06-24T08:51:37.749Z,14.49
2018-06-24T08:54:06.911Z,14.58
2018-06-24T08:56:36.121Z,14.67
2018-06-24T08:59:05.269Z,14.69
2018-06-24T09:01:34.897Z,14.75
2018-06-24T09:04:04.868Z,14.86
2018-06-24T09:06:34.040Z,14.96
2018-06-24T09:09:03.497Z,15.09
2018-06-24T09:11:32.647Z,15.22
2018-06-24T09:14:01.792Z,15.32
2018-06-24T09:16:30.903Z,15.48
2018-06-24T09:19:00.067Z,15.77
2018-06-24T09:21:29.210Z,16.10
2018-06-24T09:23:58.347Z,16.43
2018-06-24T09:26:27.606Z,16.59
2018-06-24T09:28:56.786Z,16.55
2018-06-24T09:31:26.047Z,16.49
2018-06-24T09:33:55.248Z,16.42
2018-06-24T09:36:25.003Z,16.35
2018-06-24T09:38:54.173Z,16.39
2018-06-24T09:41:23.345Z,16.68
2018-06-24T09:43:52.641Z,16.91
2018-06-24T09:46:21.768Z,16.92
2018-06-24T09:48:50.978Z,16.91
2018-06-24T09:51:20.234Z,16.82
2018-06-24T09:53:49.434Z,16.75
2018-06-24T09:56:18.641Z,16.64
2018-06-24T09:58:47.829Z,16.52
2018-06-24T10:01:17.109Z,16.58
2018-06-24T10:03:46.467Z,16.57
2018-06-24T10:06:15.790Z,16.59
2018-06-24T10:08:45.051Z,16.83
2018-06-24T10:11:14.399Z,17.04
2018-06-24T10:13:43.582Z,17.30
2018-06-24T10:16:14.100Z,17.59
2018-06-24T10:18:43.855Z,17.62
2018-06-24T10:21:13.933Z,17.50
2018-06-24T10:23:43.465Z,17.40
2018-06-24T10:26:12.836Z,17.56
2018-06-24T10:28:42.460Z,17.91
2018-06-24T10:31:12.026Z,18.33
2018-06-24T10:33:42.222Z,18.72
2018-06-24T10:36:11.678Z,18.73
2018-06-24T10:38:40.775Z,18.26
2018-06-24T10:41:10.424Z,17.67
2018-06-24T10:43:39.957Z,17.23
2018-06-24T10:46:10.163Z,17.05
2018-06-24T10:48:43.581Z,17.32
2018-06-24T10:51:15.383Z,17.93
2018-06-24T10:53:44.711Z,18.48
2018-06-24T10:56:14.111Z,18.83
2018-06-24T10:58:43.271Z,18.96
2018-06-24T11:01:12.610Z,18.88
2018-06-24T11:03:41.770Z,18.61
2018-06-24T11:06:10.946Z,18.19
2018-06-24T11:08:40.105Z,17.88
2018-06-24T11:11:09.269Z,17.72
2018-06-24T11:13:38.490Z,17.74
2018-06-24T11:16:07.660Z,18.04
2018-06-24T11:18:36.818Z,18.39
2018-06-24T11:21:06.268Z,18.50
2018-06-24T11:23:35.455Z,18.47
2018-06-24T11:26:04.661Z,18.34
2018-06-24T11:39:40.598Z,19.25
2018-06-24T11:42:09.728Z,18.73
2018-06-24T11:44:38.897Z,18.40
2018-06-24T11:47:08.065Z,18.36
2018-06-24T11:49:37.272Z,18.54
2018-06-24T11:52:06.761Z,18.89
2018-06-24T11:54:35.910Z,19.03
2018-06-24T11:57:05.215Z,19.10
2018-06-24T11:59:34.428Z,19.00
2018-06-24T12:02:03.683Z,18.81
2018-06-24T12:04:33.077Z,18.58
2018-06-24T12:07:02.243Z,18.35
2018-06-24T12:09:31.515Z,18.27
2018-06-24T12:12:00.658Z,18.27
2018-06-24T12:14:29.810Z,18.19
2018-06-24T12:16:59.579Z,18.04
2018-06-24T12:19:28.721Z,17.95
2018-06-24T12:21:58.762Z,17.84
2018-06-24T12:24:27.935Z,17.61
2018-06-24T12:26:57.173Z,17.34
2018-06-24T12:29:26.501Z,17.11
2018-06-24T12:31:55.939Z,17.05
2018-06-24T12:34:25.889Z,17.19
2018-06-24T12:36:55.346Z,17.56
2018-06-24T12:39:24.856Z,17.89
2018-06-24T12:41:54.311Z,18.10
2018-06-24T12:44:23.676Z,18.18
2018-06-24T12:46:53.258Z,18.15
2018-06-24T12:49:22.938Z,18.06
2018-06-24T12:51:52.102Z,17.79
2018-06-24T12:54:21.535Z,17.60
2018-06-24T12:56:51.426Z,17.62
2018-06-24T12:59:20.865Z,17.65
2018-06-24T13:01:49.921Z,17.71
2018-06-24T13:04:19.278Z,17.91
2018-06-24T13:06:48.308Z,18.23
2018-06-24T13:09:17.617Z,18.44
2018-06-24T13:11:47.428Z,18.69
2018-06-24T13:14:16.658Z,18.88
2018-06-24T13:16:45.806Z,19.08
2018-06-24T13:19:15.083Z,19.26
2018-06-24T13:21:44.375Z,19.45
2018-06-24T13:24:20.577Z,19.53
2018-06-24T13:26:49.944Z,19.62
2018-06-24T13:29:19.104Z,19.60
2018-06-24T13:31:48.393Z,19.42
2018-06-24T13:34:17.652Z,19.30
2018-06-24T13:36:47.461Z,19.25
2018-06-24T13:39:16.720Z,19.17
2018-06-24T13:41:45.939Z,19.07
2018-06-24T13:44:15.485Z,18.94
2018-06-24T13:46:44.830Z,18.75
2018-06-24T13:49:14.020Z,18.58
2018-06-24T13:51:43.925Z,18.51
2018-06-24T13:54:13.388Z,18.48
2018-06-24T13:56:42.766Z,18.51
2018-06-24T13:59:12.091Z,18.55
2018-06-24T14:01:41.544Z,18.57
2018-06-24T14:04:10.698Z,18.58
2018-06-24T14:06:39.966Z,18.57
2018-06-24T14:09:12.417Z,18.60
2018-06-24T14:11:41.773Z,18.64
2018-06-24T14:14:11.084Z,18.66
2018-06-24T14:16:40.797Z,18.77
2018-06-24T14:19:10.233Z,18.90
2018-06-24T14:21:39.479Z,19.01
2018-06-24T14:24:08.863Z,19.18
2018-06-24T14:26:38.050Z,19.30
2018-06-24T14:29:07.333Z,19.34
2018-06-24T14:31:36.562Z,19.30
2018-06-24T14:34:06.149Z,19.25
2018-06-24T14:36:35.324Z,19.19
2018-06-24T14:39:07.720Z,19.19
2018-06-24T14:41:36.984Z,19.29
2018-06-24T14:44:06.539Z,19.37
2018-06-24T14:46:36.235Z,19.40
2018-06-24T14:49:05.720Z,19.30
2018-06-24T14:51:34.999Z,19.22
2018-06-24T14:54:04.273Z,19.25
2018-06-24T14:56:33.487Z,19.25
2018-06-24T14:59:02.766Z,19.23
2018-06-24T15:01:32.138Z,19.22
2018-06-24T15:04:01.234Z,19.15
2018-06-24T15:06:30.565Z,19.03
2018-06-24T15:08:59.823Z,18.91
2018-06-24T15:11:29.147Z,18.78
2018-06-24T15:13:58.612Z,18.63
2018-06-24T15:16:28.251Z,18.57
2018-06-24T15:18:57.555Z,18.51
2018-06-24T15:21:26.934Z,18.55
2018-06-24T15:23:56.342Z,18.56
2018-06-24T15:26:25.733Z,18.53
2018-06-24T15:28:55.134Z,18.46
2018-06-24T15:31:24.441Z,18.48
2018-06-24T15:33:53.870Z,18.54
2018-06-24T15:36:23.065Z,18.61
2018-06-24T15:38:52.393Z,18.63
2018-06-24T15:41:21.662Z,18.58
2018-06-24T15:43:50.999Z,18.45
2018-06-24T15:46:20.292Z,18.29
2018-06-24T15:48:50.227Z,18.12
2018-06-24T15:51:20.568Z,17.93
2018-06-24T15:53:50.184Z,17.69
2018-06-24T15:56:21.943Z,17.47
2018-06-24T15:58:51.347Z,17.21
2018-06-24T16:01:21.070Z,16.98
2018-06-24T16:03:50.850Z,16.77
2018-06-24T16:06:20.944Z,16.55
2018-06-24T16:08:51.541Z,16.39
2018-06-24T16:11:21.743Z,16.23
2018-06-24T16:13:51.128Z,16.03
2018-06-24T16:16:20.428Z,15.90
2018-06-24T16:18:51.091Z,15.80
2018-06-24T16:21:20.715Z,15.68
2018-06-24T16:23:49.683Z,15.56
2018-06-24T16:26:18.881Z,15.45
2018-06-24T16:28:48.252Z,15.35
2018-06-24T16:31:17.529Z,15.30
2018-06-24T16:33:46.740Z,15.28
2018-06-24T16:36:16.102Z,15.25
2018-06-24T16:38:45.520Z,15.25
2018-06-24T16:41:14.794Z,15.26
2018-06-24T16:43:44.317Z,15.27
2018-06-24T16:46:13.602Z,15.28
2018-06-24T16:48:43.340Z,15.31
2018-06-24T16:51:12.930Z,15.35
2018-06-24T16:53:42.597Z,15.42
2018-06-24T16:56:12.117Z,15.50
2018-06-24T16:58:41.353Z,15.60
2018-06-24T17:01:10.530Z,15.69
2018-06-24T17:03:39.871Z,15.74
2018-06-24T17:06:09.054Z,15.76
2018-06-24T17:08:38.210Z,15.79
2018-06-24T17:11:07.381Z,15.83
2018-06-24T17:13:36.531Z,15.83
2018-06-24T17:16:06.053Z,15.82
2018-06-24T17:18:36.272Z,15.81
2018-06-24T17:21:05.538Z,15.77
2018-06-24T17:23:34.788Z,15.70
2018-06-24T17:26:04.002Z,15.63
2018-06-24T17:28:33.287Z,15.54
2018-06-24T17:31:02.689Z,15.42
2018-06-24T17:33:31.925Z,15.31
2018-06-24T17:36:01.970Z,15.24
2018-06-24T17:38:31.286Z,15.16
2018-06-24T17:41:00.488Z,15.08
2018-06-24T17:43:29.617Z,15.01
2018-06-24T17:45:58.795Z,14.98
2018-06-24T17:48:28.012Z,14.97
2018-06-24T17:50:57.140Z,14.95
2018-06-24T17:53:26.504Z,14.94
2018-06-24T17:55:55.659Z,14.94
2018-06-24T17:58:24.809Z,14.90
2018-06-24T18:00:53.964Z,14.85
2018-06-24T18:03:23.519Z,14.80
2018-06-24T18:05:52.726Z,14.80
2018-06-24T18:08:21.915Z,14.80
2018-06-24T18:10:51.145Z,14.81
2018-06-24T18:13:20.517Z,14.82
2018-06-24T18:15:49.877Z,14.80
2018-06-24T18:18:19.063Z,14.76
2018-06-24T18:20:48.240Z,14.72
2018-06-24T18:23:17.456Z,14.69
2018-06-24T18:25:46.568Z,14.65
2018-06-24T18:28:15.714Z,14.62
2018-06-24T18:30:44.841Z,14.57
2018-06-24T18:33:14.185Z,14.52
2018-06-24T18:35:43.358Z,14.49
2018-06-24T18:38:12.526Z,14.48
2018-06-24T18:40:41.683Z,14.43
2018-06-24T18:43:10.960Z,14.39
2018-06-24T18:45:40.371Z,14.34
2018-06-24T18:48:09.397Z,14.32
2018-06-24T18:50:39.797Z,14.30
2018-06-24T18:53:09.423Z,14.28
2018-06-24T18:55:39.714Z,14.26
2018-06-24T18:58:09.759Z,14.23
2018-06-24T19:00:39.717Z,14.20
2018-06-24T19:03:09.605Z,14.18
2018-06-24T19:05:39.859Z,14.16
2018-06-24T19:08:09.076Z,14.18
2018-06-24T19:10:38.226Z,14.18
2018-06-24T19:13:07.387Z,14.19
2018-06-24T19:15:36.823Z,14.20
2018-06-24T19:18:07.233Z,14.20
2018-06-24T19:20:36.439Z,14.19
2018-06-24T19:23:08.043Z,14.20
2018-06-24T19:25:37.230Z,14.20
2018-06-24T19:28:06.588Z,14.21
2018-06-24T19:30:35.753Z,14.21
2018-06-24T19:33:04.960Z,14.21
2018-06-24T19:35:34.214Z,14.21
2018-06-24T19:38:03.564Z,14.22
2018-06-24T19:40:32.751Z,14.21
2018-06-24T19:43:02.019Z,14.19
2018-06-24T19:45:31.175Z,14.18
2018-06-24T19:48:00.304Z,14.17
2018-06-24T19:50:29.491Z,14.16
2018-06-24T19:52:58.637Z,14.17
2018-06-24T19:55:27.801Z,14.17
2018-06-24T19:57:57.001Z,14.17
2018-06-24T20:00:26.140Z,14.17
2018-06-24T20:02:55.277Z,14.17
2018-06-24T20:05:24.450Z,14.18
2018-06-24T20:07:53.655Z,14.19
2018-06-24T20:10:22.785Z,14.21
2018-06-24T20:12:51.939Z,14.23
2018-06-24T20:15:21.192Z,14.26
2018-06-24T20:17:50.318Z,14.28
2018-06-24T20:20:19.449Z,14.28
2018-06-24T20:22:48.668Z,14.29
2018-06-24T20:25:17.833Z,14.30
2018-06-24T20:27:46.966Z,14.30
2018-06-24T20:30:16.149Z,14.30
2018-06-24T20:32:45.302Z,14.31
2018-06-24T20:35:14.461Z,14.32
2018-06-24T20:37:43.623Z,14.35
2018-06-24T20:40:13.816Z,14.36
2018-06-24T20:42:43.118Z,14.39
2018-06-24T20:45:12.382Z,14.41
2018-06-24T20:47:41.595Z,14.40
2018-06-24T20:50:10.900Z,14.40
2018-06-24T20:52:40.048Z,14.41
2018-06-24T20:55:09.321Z,14.42
2018-06-24T20:57:38.473Z,14.42
2018-06-24T21:00:08.154Z,14.41
2018-06-24T21:02:37.352Z,14.41
2018-06-24T21:05:06.655Z,14.41
2018-06-24T21:07:35.786Z,14.39
2018-06-24T21:10:04.920Z,14.37
2018-06-24T21:12:34.120Z,14.35
2018-06-24T21:15:04.278Z,14.33
2018-06-24T21:17:33.509Z,14.33
2018-06-24T21:20:02.660Z,14.33
2018-06-24T21:22:31.802Z,14.33
2018-06-24T21:25:01.018Z,14.33
2018-06-24T21:27:30.162Z,14.31
2018-06-24T21:29:59.384Z,14.30
2018-06-24T21:32:28.552Z,14.31
2018-06-24T21:34:57.706Z,14.33
2018-06-24T21:37:26.850Z,14.35
2018-06-24T21:39:56.462Z,14.36
2018-06-24T21:42:25.703Z,14.36
2018-06-24T21:44:54.951Z,14.36
2018-06-24T21:47:24.092Z,14.36
2018-06-24T21:49:53.358Z,14.35
2018-06-24T21:52:22.469Z,14.36
2018-06-24T21:54:51.901Z,14.36
2018-06-24T21:57:21.033Z,14.37
2018-06-24T21:59:50.141Z,14.36
2018-06-24T22:02:19.257Z,14.37
2018-06-24T22:04:48.514Z,14.35
2018-06-24T22:07:17.645Z,14.34
2018-06-24T22:09:46.776Z,14.34
2018-06-24T22:12:15.909Z,14.35
2018-06-24T22:14:45.018Z,14.35
2018-06-24T22:17:14.177Z,14.36
2018-06-24T22:19:43.358Z,14.36
2018-06-24T22:22:12.477Z,14.35
2018-06-24T22:24:41.645Z,14.32
2018-06-24T22:27:10.806Z,14.30
2018-06-24T22:29:39.956Z,14.28
2018-06-24T22:32:09.135Z,14.27
2018-06-24T22:34:38.398Z,14.24
2018-06-24T22:37:07.558Z,14.21
2018-06-24T22:39:36.696Z,14.19
2018-06-24T22:42:05.801Z,14.15
2018-06-24T22:44:34.982Z,14.08
2018-06-24T22:47:04.110Z,14.01
2018-06-24T22:49:33.197Z,13.95
2018-06-24T22:52:02.318Z,13.89
2018-06-24T22:54:31.727Z,13.83
2018-06-24T22:57:00.941Z,13.79
2018-06-24T22:59:47.433Z,13.75
2018-06-24T23:02:16.750Z,13.70
2018-06-24T23:04:45.986Z,13.66
2018-06-24T23:07:15.099Z,13.65
2018-06-24T23:09:44.229Z,13.68
2018-06-24T23:12:13.353Z,13.70
2018-06-24T23:14:42.490Z,13.74
2018-06-24T23:17:11.614Z,13.80
2018-06-24T23:19:40.769Z,13.84
2018-06-24T23:22:09.984Z,13.86
2018-06-24T23:24:39.144Z,13.89
2018-06-24T23:27:08.351Z,13.90
2018-06-24T23:29:37.507Z,13.92
2018-06-24T23:32:06.679Z,13.93
2018-06-24T23:34:35.886Z,13.94
2018-06-24T23:37:05.058Z,13.94
2018-06-24T23:39:34.353Z,13.96
2018-06-24T23:42:03.545Z,13.97
2018-06-24T23:44:32.679Z,14.00
2018-06-24T23:47:01.841Z,14.00
2018-06-24T23:49:31.424Z,14.02
2018-06-24T23:52:00.776Z,14.04
2018-06-24T23:54:30.344Z,14.05
2018-06-24T23:56:59.625Z,14.08
2018-06-24T23:59:28.952Z,14.11
